sensor_id;sensor_type;location;lat;lon;timestamp;pressure;altitude;pressure_sealevel;temperature;humidity
36092;BME280;22147;52.388;13.390;2023-08-31T00:02:06;99818.09;;;12.16;100.00
36092;BME280;22147;52.388;13.390;2023-08-31T00:04:36;99822.88;;;12.15;100.00
36092;BME280;22147;52.388;13.390;2023-08-31T00:07:07;99828.44;;;12.15;100.00
36092;BME280;22147;52.388;13.390;2023-08-31T00:09:37;99826.47;;;12.16;100.00
36092;BME280;22147;52.388;13.390;2023-08-31T00:12:08;99824.81;;;12.15;100.00
36092;BME280;22147;52.388;13.390;2023-08-31T00:14:39;99820.09;;;12.15;100.00
36092;BME280;22147;52.388;13.390;2023-08-31T00:17:09;99816.13;;;12.16;100.00
36092;BME280;22147;52.388;13.390;2023-08-31T00:19:39;99806.97;;;12.16;100.00
36092;BME280;22147;52.388;13.390;2023-08-31T00:22:09;99807.31;;;12.14;100.00
36092;BME280;22147;52.388;13.390;2023-08-31T00:24:39;99799.44;;;12.16;100.00
36092;BME280;22147;52.388;13.390;2023-08-31T00:27:10;99797.81;;;12.15;100.00
36092;BME280;22147;52.388;13.390;2023-08-31T00:29:40;99802.16;;;12.13;100.00
36092;BME280;22147;52.388;13.390;2023-08-31T00:32:10;99802.16;;;12.13;100.00
36092;BME280;22147;52.388;13.390;2023-08-31T00:34:41;99808.13;;;12.15;100.00
36092;BME280;22147;52.388;13.390;2023-08-31T00:37:11;99805.78;;;12.17;100.00
36092;BME280;22147;52.388;13.390;2023-08-31T00:39:41;99814.97;;;12.17;100.00
36092;BME280;22147;52.388;13.390;2023-08-31T00:42:13;99806.63;;;12.17;100.00
36092;BME280;22147;52.388;13.390;2023-08-31T00:44:44;99814.25;;;12.20;100.00
36092;BME280;22147;52.388;13.390;2023-08-31T00:47:16;99815.41;;;12.19;100.00
36092;BME280;22147;52.388;13.390;2023-08-31T00:49:48;99814.97;;;12.17;100.00
36092;BME280;22147;52.388;13.390;2023-08-31T00:52:19;99816.47;;;12.15;100.00
36092;BME280;22147;52.388;13.390;2023-08-31T00:54:52;99818.47;;;12.14;100.00
36092;BME280;22147;52.388;13.390;2023-08-31T00:57:22;99810.84;;;12.11;100.00
36092;BME280;22147;52.388;13.390;2023-08-31T00:59:56;99823.13;;;12.10;100.00
36092;BME280;22147;52.388;13.390;2023-08-31T01:05:44;99819.28;;;11.99;100.00
36092;BME280;22147;52.388;13.390;2023-08-31T01:08:43;99826.28;;;11.93;100.00
36092;BME280;22147;52.388;13.390;2023-08-31T01:14:54;99829.94;;;11.81;100.00
36092;BME280;22147;52.388;13.390;2023-08-31T01:17:32;99830.66;;;11.78;100.00
36092;BME280;22147;52.388;13.390;2023-08-31T01:20:06;99833.16;;;11.83;100.00
36092;BME280;22147;52.388;13.390;2023-08-31T01:22:50;99832.72;;;11.81;100.00
36092;BME280;22147;52.388;13.390;2023-08-31T01:25:29;99830.31;;;11.79;100.00
36092;BME280;22147;52.388;13.390;2023-08-31T01:28:04;99831.19;;;11.84;100.00
36092;BME280;22147;52.388;13.390;2023-08-31T01:30:36;99844.28;;;11.83;100.00
36092;BME280;22147;52.388;13.390;2023-08-31T01:33:06;99831.28;;;11.87;100.00
36092;BME280;22147;52.388;13.390;2023-08-31T01:35:53;99839.41;;;11.92;100.00
36092;BME280;22147;52.388;13.390;2023-08-31T01:38:29;99832.75;;;11.97;100.00
36092;BME280;22147;52.388;13.390;2023-08-31T01:41:07;99839.84;;;11.94;100.00
36092;BME280;22147;52.388;13.390;2023-08-31T01:43:44;99837.59;;;12.00;100.00
36092;BME280;22147;52.388;13.390;2023-08-31T01:46:18;99849.09;;;11.98;100.00
36092;BME280;22147;52.388;13.390;2023-08-31T01:48:49;99858.97;;;11.96;100.00
36092;BME280;22147;52.388;13.390;2023-08-31T01:51:19;99862.47;;;11.93;100.00
36092;BME280;22147;52.388;13.390;2023-08-31T01:53:49;99859.78;;;11.96;100.00
36092;BME280;22147;52.388;13.390;2023-08-31T01:56:19;99858.53;;;11.94;100.00
36092;BME280;22147;52.388;13.390;2023-08-31T01:58:51;99864.88;;;11.94;100.00
36092;BME280;22147;52.388;13.390;2023-08-31T02:01:21;99867.22;;;11.92;100.00
36092;BME280;22147;52.388;13.390;2023-08-31T02:03:51;99874.66;;;11.88;100.00
36092;BME280;22147;52.388;13.390;2023-08-31T02:06:22;99881.03;;;11.89;100.00
36092;BME280;22147;52.388;13.390;2023-08-31T02:08:52;99873.38;;;11.86;100.00
36092;BME280;22147;52.388;13.390;2023-08-31T02:11:22;99877.31;;;11.85;100.00
36092;BME280;22147;52.388;13.390;2023-08-31T02:13:52;99883.16;;;11.79;100.00
36092;BME280;22147;52.388;13.390;2023-08-31T02:16:21;99879.81;;;11.74;100.00
36092;BME280;22147;52.388;13.390;2023-08-31T02:18:49;99882.50;;;11.70;100.00
36092;BME280;22147;52.388;13.390;2023-08-31T02:21:17;99886.44;;;11.69;100.00
36092;BME280;22147;52.388;13.390;2023-08-31T02:23:49;99877.53;;;11.64;100.00
36092;BME280;22147;52.388;13.390;2023-08-31T02:26:17;99887.31;;;11.57;100.00
36092;BME280;22147;52.388;13.390;2023-08-31T02:28:46;99891.72;;;11.58;100.00
36092;BME280;22147;52.388;13.390;2023-08-31T02:31:17;99892.06;;;11.57;100.00
36092;BME280;22147;52.388;13.390;2023-08-31T02:33:48;99893.94;;;11.53;100.00
36092;BME280;22147;52.388;13.390;2023-08-31T02:36:19;99896.59;;;11.49;100.00
36092;BME280;22147;52.388;13.390;2023-08-31T02:38:52;99898.59;;;11.49;100.00
36092;BME280;22147;52.388;13.390;2023-08-31T02:41:23;99908.09;;;11.48;100.00
36092;BME280;22147;52.388;13.390;2023-08-31T02:43:53;99906.84;;;11.45;100.00
36092;BME280;22147;52.388;13.390;2023-08-31T02:46:23;99899.66;;;11.44;100.00
36092;BME280;22147;52.388;13.390;2023-08-31T02:48:54;99896.75;;;11.40;100.00
36092;BME280;22147;52.388;13.390;2023-08-31T02:51:24;99896.75;;;11.40;100.00
36092;BME280;22147;52.388;13.390;2023-08-31T02:53:54;99891.94;;;11.37;100.00
36092;BME280;22147;52.388;13.390;2023-08-31T02:56:24;99899.81;;;11.35;100.00
36092;BME280;22147;52.388;13.390;2023-08-31T02:58:53;99905.38;;;11.35;100.00
36092;BME280;22147;52.388;13.390;2023-08-31T03:01:22;99901.34;;;11.33;100.00
36092;BME280;22147;52.388;13.390;2023-08-31T03:03:50;99907.59;;;11.30;100.00
36092;BME280;22147;52.388;13.390;2023-08-31T03:06:18;99914.19;;;11.25;100.00
36092;BME280;22147;52.388;13.390;2023-08-31T03:08:47;99907.03;;;11.24;100.00
36092;BME280;22147;52.388;13.390;2023-08-31T03:11:15;99909.81;;;11.24;100.00
36092;BME280;22147;52.388;13.390;2023-08-31T03:13:44;99917.31;;;11.24;100.00
36092;BME280;22147;52.388;13.390;2023-08-31T03:16:12;99918.16;;;11.24;100.00
36092;BME280;22147;52.388;13.390;2023-08-31T03:18:41;99919.31;;;11.23;100.00
36092;BME280;22147;52.388;13.390;2023-08-31T03:21:09;99915.72;;;11.23;100.00
36092;BME280;22147;52.388;13.390;2023-08-31T03:23:37;99920.81;;;11.20;100.00
36092;BME280;22147;52.388;13.390;2023-08-31T03:26:09;99923.25;;;11.22;100.00
36092;BME280;22147;52.388;13.390;2023-08-31T03:28:37;99931.59;;;11.22;100.00
36092;BME280;22147;52.388;13.390;2023-08-31T03:31:10;99922.09;;;11.23;100.00
36092;BME280;22147;52.388;13.390;2023-08-31T03:33:38;99922.09;;;11.23;100.00
36092;BME280;22147;52.388;13.390;2023-08-31T03:36:07;99919.31;;;11.23;100.00
36092;BME280;22147;52.388;13.390;2023-08-31T03:38:35;99920.56;;;11.26;100.00
36092;BME280;22147;52.388;13.390;2023-08-31T03:41:06;99924.97;;;11.27;100.00
36092;BME280;22147;52.388;13.390;2023-08-31T03:43:35;99921.41;;;11.26;100.00
36092;BME280;22147;52.388;13.390;2023-08-31T03:46:03;99934.47;;;11.26;100.00
36092;BME280;22147;52.388;13.390;2023-08-31T03:48:31;99928.66;;;11.31;100.00
36092;BME280;22147;52.388;13.390;2023-08-31T03:51:00;99931.91;;;11.33;100.00
36092;BME280;22147;52.388;13.390;2023-08-31T03:53:28;99933.84;;;11.32;100.00
36092;BME280;22147;52.388;13.390;2023-08-31T03:55:57;99929.47;;;11.31;100.00
36092;BME280;22147;52.388;13.390;2023-08-31T03:58:25;99931.78;;;11.29;100.00
36092;BME280;22147;52.388;13.390;2023-08-31T04:00:54;99932.84;;;11.25;100.00
36092;BME280;22147;52.388;13.390;2023-08-31T04:03:22;99936.69;;;11.20;100.00
36092;BME280;22147;52.388;13.390;2023-08-31T04:05:55;99937.97;;;11.10;100.00
36092;BME280;22147;52.388;13.390;2023-08-31T04:08:26;99936.25;;;11.06;100.00
36092;BME280;22147;52.388;13.390;2023-08-31T04:10:55;99947.72;;;11.04;100.00
36092;BME280;22147;52.388;13.390;2023-08-31T04:13:26;99952.47;;;11.04;100.00
36092;BME280;22147;52.388;13.390;2023-08-31T04:15:56;99957.31;;;11.07;100.00
36092;BME280;22147;52.388;13.390;2023-08-31T04:18:26;99953.72;;;11.06;100.00
36092;BME280;22147;52.388;13.390;2023-08-31T04:20:56;99957.31;;;11.07;100.00
36092;BME280;22147;52.388;13.390;2023-08-31T04:23:29;99958.16;;;11.07;100.00
36092;BME280;22147;52.388;13.390;2023-08-31T04:25:59;99957.69;;;11.05;100.00
36092;BME280;22147;52.388;13.390;2023-08-31T04:28:29;99967.63;;;11.06;100.00
36092;BME280;22147;52.388;13.390;2023-08-31T04:30:59;99962.88;;;11.07;100.00
36092;BME280;22147;52.388;13.390;2023-08-31T04:33:29;99958.94;;;11.08;100.00
36092;BME280;22147;52.388;13.390;2023-08-31T04:35:59;99963.78;;;11.11;100.00
36092;BME280;22147;52.388;13.390;2023-08-31T04:38:29;99973.19;;;11.06;100.00
36092;BME280;22147;52.388;13.390;2023-08-31T04:41:00;99966.81;;;11.06;100.00
36092;BME280;22147;52.388;13.390;2023-08-31T04:43:30;99968.88;;;11.09;100.00
36092;BME280;22147;52.388;13.390;2023-08-31T04:46:01;99971.31;;;11.10;100.00
36092;BME280;22147;52.388;13.390;2023-08-31T04:48:33;99971.31;;;11.10;100.00
36092;BME280;22147;52.388;13.390;2023-08-31T04:51:03;99971.53;;;11.17;100.00
36092;BME280;22147;52.388;13.390;2023-08-31T04:53:33;99979.53;;;11.19;100.00
36092;BME280;22147;52.388;13.390;2023-08-31T04:56:03;99975.94;;;11.18;100.00
36092;BME280;22147;52.388;13.390;2023-08-31T04:58:33;99975.34;;;11.25;100.00
36092;BME280;22147;52.388;13.390;2023-08-31T05:01:03;99975.69;;;11.24;100.00
36092;BME280;22147;52.388;13.390;2023-08-31T05:03:33;99978.13;;;11.25;100.00
36092;BME280;22147;52.388;13.390;2023-08-31T05:06:03;99983.09;;;11.32;100.00
36092;BME280;22147;52.388;13.390;2023-08-31T05:08:34;99975.94;;;11.31;100.00
36092;BME280;22147;52.388;13.390;2023-08-31T05:11:04;99982.75;;;11.33;100.00
36092;BME280;22147;52.388;13.390;2023-08-31T05:13:35;99977.19;;;11.33;100.00
36092;BME280;22147;52.388;13.390;2023-08-31T05:16:04;99975.66;;;11.36;100.00
36092;BME280;22147;52.388;13.390;2023-08-31T05:18:34;99983.22;;;11.35;100.00
36092;BME280;22147;52.388;13.390;2023-08-31T05:21:06;99987.13;;;11.34;100.00
36092;BME280;22147;52.388;13.390;2023-08-31T05:23:35;99984.13;;;11.39;100.00
36092;BME280;22147;52.388;13.390;2023-08-31T05:26:05;100000.81;;;11.39;100.00
36092;BME280;22147;52.388;13.390;2023-08-31T05:28:35;100001.16;;;11.38;100.00
36092;BME280;22147;52.388;13.390;2023-08-31T05:31:05;100003.69;;;11.43;100.00
36092;BME280;22147;52.388;13.390;2023-08-31T05:33:36;100009.25;;;11.43;100.00
36092;BME280;22147;52.388;13.390;2023-08-31T05:36:06;100014.56;;;11.48;100.00
36092;BME280;22147;52.388;13.390;2023-08-31T05:38:36;100015.75;;;11.47;100.00
36092;BME280;22147;52.388;13.390;2023-08-31T05:41:08;100020.59;;;11.50;100.00
36092;BME280;22147;52.388;13.390;2023-08-31T05:43:38;100021.16;;;11.56;100.00
36092;BME280;22147;52.388;13.390;2023-08-31T05:46:10;100030.31;;;11.56;100.00
36092;BME280;22147;52.388;13.390;2023-08-31T05:48:40;100032.03;;;11.61;100.00
36092;BME280;22147;52.388;13.390;2023-08-31T05:51:10;100024.00;;;11.72;100.00
36092;BME280;22147;52.388;13.390;2023-08-31T05:53:40;100030.38;;;11.72;100.00
36092;BME280;22147;52.388;13.390;2023-08-31T05:56:10;100027.25;;;11.74;100.00
36092;BME280;22147;52.388;13.390;2023-08-31T05:58:40;100023.84;;;11.80;100.00
36092;BME280;22147;52.388;13.390;2023-08-31T06:01:10;100029.19;;;11.86;100.00
36092;BME280;22147;52.388;13.390;2023-08-31T06:03:40;100032.53;;;11.91;100.00
36092;BME280;22147;52.388;13.390;2023-08-31T06:06:10;100037.06;;;11.96;100.00
36092;BME280;22147;52.388;13.390;2023-08-31T06:08:40;100035.25;;;12.04;100.00
36092;BME280;22147;52.388;13.390;2023-08-31T06:11:12;100038.84;;;12.04;100.00
36092;BME280;22147;52.388;13.390;2023-08-31T06:13:43;100044.63;;;12.11;100.00
36092;BME280;22147;52.388;13.390;2023-08-31T06:16:13;100045.53;;;12.15;100.00
36092;BME280;22147;52.388;13.390;2023-08-31T06:18:42;100048.22;;;12.12;100.00
36092;BME280;22147;52.388;13.390;2023-08-31T06:21:13;100043.91;;;12.14;100.00
36092;BME280;22147;52.388;13.390;2023-08-31T06:23:41;100051.19;;;12.19;100.00
36092;BME280;22147;52.388;13.390;2023-08-31T06:26:10;100051.06;;;12.28;100.00
36092;BME280;22147;52.388;13.390;2023-08-31T06:28:38;100055.28;;;12.37;100.00
36092;BME280;22147;52.388;13.390;2023-08-31T06:31:07;100056.75;;;12.47;100.00
36092;BME280;22147;52.388;13.390;2023-08-31T06:33:35;100054.50;;;12.53;100.00
36092;BME280;22147;52.388;13.390;2023-08-31T06:36:04;100059.38;;;12.56;100.00
36092;BME280;22147;52.388;13.390;2023-08-31T06:38:32;100062.25;;;12.59;100.00
36092;BME280;22147;52.388;13.390;2023-08-31T06:41:02;100065.38;;;12.58;100.00
36092;BME280;22147;52.388;13.390;2023-08-31T06:43:32;100067.78;;;12.43;100.00
36092;BME280;22147;52.388;13.390;2023-08-31T06:46:00;100072.44;;;12.39;100.00
36092;BME280;22147;52.388;13.390;2023-08-31T06:48:50;100073.63;;;12.38;100.00
36092;BME280;22147;52.388;13.390;2023-08-31T06:51:21;100080.78;;;12.39;100.00
36092;BME280;22147;52.388;13.390;2023-08-31T06:53:53;100072.88;;;12.26;100.00
36092;BME280;22147;52.388;13.390;2023-08-31T06:56:21;100078.34;;;12.22;100.00
36092;BME280;22147;52.388;13.390;2023-08-31T06:58:50;100082.66;;;12.19;100.00
36092;BME280;22147;52.388;13.390;2023-08-31T07:01:18;100078.56;;;12.17;100.00
36092;BME280;22147;52.388;13.390;2023-08-31T07:03:46;100082.53;;;12.16;100.00
36092;BME280;22147;52.388;13.390;2023-08-31T07:06:15;100087.19;;;12.12;100.00
36092;BME280;22147;52.388;13.390;2023-08-31T07:08:43;100087.44;;;12.07;100.00
36092;BME280;22147;52.388;13.390;2023-08-31T07:11:15;100090.13;;;12.03;100.00
36092;BME280;22147;52.388;13.390;2023-08-31T07:13:46;100083.75;;;12.02;100.00
36092;BME280;22147;52.388;13.390;2023-08-31T07:16:17;100089.31;;;12.02;100.00
36092;BME280;22147;52.388;13.390;2023-08-31T07:18:48;100083.38;;;12.04;100.00
36092;BME280;22147;52.388;13.390;2023-08-31T07:21:18;100087.53;;;12.10;100.00
36092;BME280;22147;52.388;13.390;2023-08-31T07:23:49;100088.66;;;12.21;100.00
36092;BME280;22147;52.388;13.390;2023-08-31T07:26:20;100094.06;;;12.30;100.00
36092;BME280;22147;52.388;13.390;2023-08-31T07:28:50;100105.69;;;12.48;100.00
36092;BME280;22147;52.388;13.390;2023-08-31T07:31:20;100095.75;;;12.63;100.00
36092;BME280;22147;52.388;13.390;2023-08-31T07:33:51;100106.25;;;12.70;100.00
36092;BME280;22147;52.388;13.390;2023-08-31T07:36:21;100112.22;;;12.84;100.00
36092;BME280;22147;52.388;13.390;2023-08-31T07:38:51;100112.88;;;12.93;100.00
36092;BME280;22147;52.388;13.390;2023-08-31T07:41:21;100118.53;;;12.97;100.00
36092;BME280;22147;52.388;13.390;2023-08-31T07:43:52;100127.16;;;13.08;100.00
36092;BME280;22147;52.388;13.390;2023-08-31T07:46:33;100120.16;;;13.14;100.00
36092;BME280;22147;52.388;13.390;2023-08-31T07:49:04;100132.19;;;13.18;100.00
36092;BME280;22147;52.388;13.390;2023-08-31T07:51:34;100134.63;;;13.19;100.00
36092;BME280;22147;52.388;13.390;2023-08-31T07:54:04;100143.34;;;13.02;100.00
36092;BME280;22147;52.388;13.390;2023-08-31T07:56:34;100135.88;;;12.90;100.00
36092;BME280;22147;52.388;13.390;2023-08-31T07:59:05;100150.31;;;12.80;100.00
36092;BME280;22147;52.388;13.390;2023-08-31T08:01:35;100142.13;;;12.71;100.00
36092;BME280;22147;52.388;13.390;2023-08-31T08:04:05;100140.78;;;12.65;100.00
36092;BME280;22147;52.388;13.390;2023-08-31T08:06:36;100142.06;;;12.83;100.00
36092;BME280;22147;52.388;13.390;2023-08-31T08:09:06;100150.72;;;13.26;100.00
36092;BME280;22147;52.388;13.390;2023-08-31T08:11:36;100143.16;;;13.58;100.00
36092;BME280;22147;52.388;13.390;2023-08-31T08:14:06;100154.50;;;13.66;100.00
36092;BME280;22147;52.388;13.390;2023-08-31T08:16:37;100152.13;;;13.83;100.00
36092;BME280;22147;52.388;13.390;2023-08-31T08:19:07;100153.88;;;14.27;100.00
36092;BME280;22147;52.388;13.390;2023-08-31T08:21:37;100153.00;;;14.62;100.00
36092;BME280;22147;52.388;13.390;2023-08-31T08:24:07;100155.09;;;14.69;100.00
36092;BME280;22147;52.388;13.390;2023-08-31T08:26:38;100153.50;;;14.48;100.00
36092;BME280;22147;52.388;13.390;2023-08-31T08:29:08;100159.09;;;14.48;100.00
36092;BME280;22147;52.388;13.390;2023-08-31T08:31:38;100165.63;;;14.56;100.00
36092;BME280;22147;52.388;13.390;2023-08-31T08:34:08;100163.22;;;14.74;100.00
36092;BME280;22147;52.388;13.390;2023-08-31T08:36:38;100159.38;;;14.82;100.00
36092;BME280;22147;52.388;13.390;2023-08-31T08:39:09;100164.03;;;14.97;100.00
36092;BME280;22147;52.388;13.390;2023-08-31T08:41:41;100156.53;;;15.01;100.00
36092;BME280;22147;52.388;13.390;2023-08-31T08:44:16;100161.06;;;14.86;100.00
36092;BME280;22147;52.388;13.390;2023-08-31T08:46:50;100155.53;;;14.71;100.00
36092;BME280;22147;52.388;13.390;2023-08-31T08:49:23;100151.75;;;14.59;100.00
36092;BME280;22147;52.388;13.390;2023-08-31T08:51:55;100155.28;;;14.56;100.00
36092;BME280;22147;52.388;13.390;2023-08-31T08:54:27;100155.47;;;14.48;100.00
36092;BME280;22147;52.388;13.390;2023-08-31T08:56:57;100147.84;;;14.44;100.00
36092;BME280;22147;52.388;13.390;2023-08-31T08:59:25;100149.50;;;14.88;100.00
36092;BME280;22147;52.388;13.390;2023-08-31T09:01:53;100155.25;;;15.45;100.00
36092;BME280;22147;52.388;13.390;2023-08-31T09:04:22;100154.38;;;15.91;98.36
36092;BME280;22147;52.388;13.390;2023-08-31T09:06:51;100152.44;;;16.25;98.91
36092;BME280;22147;52.388;13.390;2023-08-31T09:09:19;100150.31;;;16.48;94.07
36092;BME280;22147;52.388;13.390;2023-08-31T09:11:47;100154.50;;;16.28;96.69
36092;BME280;22147;52.388;13.390;2023-08-31T09:14:19;100162.03;;;15.94;93.73
36092;BME280;22147;52.388;13.390;2023-08-31T09:16:51;100164.13;;;15.74;96.02
36092;BME280;22147;52.388;13.390;2023-08-31T09:19:24;100162.97;;;15.52;96.93
36092;BME280;22147;52.388;13.390;2023-08-31T09:21:57;100170.09;;;15.72;96.75
36092;BME280;22147;52.388;13.390;2023-08-31T09:24:27;100158.25;;;16.09;96.51
36092;BME280;22147;52.388;13.390;2023-08-31T09:26:58;100161.75;;;16.33;95.30
36092;BME280;22147;52.388;13.390;2023-08-31T09:29:28;100158.19;;;16.36;92.01
36092;BME280;22147;52.388;13.390;2023-08-31T09:31:58;100146.69;;;16.44;94.12
36092;BME280;22147;52.388;13.390;2023-08-31T09:34:35;100151.03;;;16.38;94.98
36092;BME280;22147;52.388;13.390;2023-08-31T09:37:08;100163.72;;;16.28;89.16
36092;BME280;22147;52.388;13.390;2023-08-31T09:39:42;100151.72;;;16.01;91.20
36092;BME280;22147;52.388;13.390;2023-08-31T09:42:12;100150.00;;;15.93;91.99
36092;BME280;22147;52.388;13.390;2023-08-31T09:44:49;100144.53;;;16.00;87.37
36092;BME280;22147;52.388;13.390;2023-08-31T09:47:19;100154.94;;;16.30;86.43
36092;BME280;22147;52.388;13.390;2023-08-31T09:49:50;100156.63;;;16.38;79.45
36092;BME280;22147;52.388;13.390;2023-08-31T09:52:21;100159.50;;;16.45;81.27
36092;BME280;22147;52.388;13.390;2023-08-31T09:54:53;100153.13;;;16.48;80.79
36092;BME280;22147;52.388;13.390;2023-08-31T09:57:26;100146.16;;;16.69;80.67
36092;BME280;22147;52.388;13.390;2023-08-31T10:00:15;100143.97;;;16.85;81.97
36092;BME280;22147;52.388;13.390;2023-08-31T10:02:46;100141.44;;;17.14;81.61
36092;BME280;22147;52.388;13.390;2023-08-31T10:05:18;100142.59;;;17.58;76.79
36092;BME280;22147;52.388;13.390;2023-08-31T10:07:50;100151.41;;;17.53;76.56
36092;BME280;22147;52.388;13.390;2023-08-31T10:10:22;100149.94;;;17.21;72.12
36092;BME280;22147;52.388;13.390;2023-08-31T10:12:54;100149.69;;;16.96;74.76
36092;BME280;22147;52.388;13.390;2023-08-31T10:15:31;100146.72;;;16.82;79.37
36092;BME280;22147;52.388;13.390;2023-08-31T10:18:06;100146.97;;;16.69;77.61
36092;BME280;22147;52.388;13.390;2023-08-31T10:20:44;100159.03;;;16.40;75.64
36092;BME280;22147;52.388;13.390;2023-08-31T10:23:15;100156.22;;;16.36;79.30
36092;BME280;22147;52.388;13.390;2023-08-31T10:28:25;100164.94;;;16.01;78.14
36092;BME280;22147;52.388;13.390;2023-08-31T10:31:18;100162.00;;;15.90;80.04
36092;BME280;22147;52.388;13.390;2023-08-31T10:34:05;100162.19;;;15.78;80.26
36092;BME280;22147;52.388;13.390;2023-08-31T10:36:45;100174.34;;;15.62;82.34
36092;BME280;22147;52.388;13.390;2023-08-31T10:39:24;100179.16;;;15.39;82.67
36092;BME280;22147;52.388;13.390;2023-08-31T10:41:56;100201.88;;;14.91;88.30
36092;BME280;22147;52.388;13.390;2023-08-31T10:44:34;100213.81;;;13.78;100.00
36092;BME280;22147;52.388;13.390;2023-08-31T10:47:05;100205.66;;;12.94;100.00
36092;BME280;22147;52.388;13.390;2023-08-31T10:49:35;100198.66;;;12.43;100.00
36092;BME280;22147;52.388;13.390;2023-08-31T10:52:19;100192.63;;;12.13;100.00
36092;BME280;22147;52.388;13.390;2023-08-31T10:55:09;100169.78;;;12.08;100.00
36092;BME280;22147;52.388;13.390;2023-08-31T10:57:41;100162.06;;;12.17;100.00
36092;BME280;22147;52.388;13.390;2023-08-31T11:00:12;100164.38;;;12.27;100.00
36092;BME280;22147;52.388;13.390;2023-08-31T11:02:44;100164.69;;;12.38;100.00
36092;BME280;22147;52.388;13.390;2023-08-31T11:05:18;100165.84;;;12.65;100.00
36092;BME280;22147;52.388;13.390;2023-08-31T11:07:52;100169.94;;;12.99;100.00
36092;BME280;22147;52.388;13.390;2023-08-31T11:10:25;100169.19;;;13.47;100.00
36092;BME280;22147;52.388;13.390;2023-08-31T11:12:58;100159.38;;;13.88;100.00
36092;BME280;22147;52.388;13.390;2023-08-31T11:15:27;100168.63;;;14.28;100.00
36092;BME280;22147;52.388;13.390;2023-08-31T11:17:59;100170.19;;;14.44;100.00
36092;BME280;22147;52.388;13.390;2023-08-31T11:20:31;100170.97;;;14.25;100.00
36092;BME280;22147;52.388;13.390;2023-08-31T11:23:00;100168.84;;;14.19;100.00
36092;BME280;22147;52.388;13.390;2023-08-31T11:25:33;100152.00;;;14.15;100.00
36092;BME280;22147;52.388;13.390;2023-08-31T11:28:06;100158.41;;;14.16;100.00
36092;BME280;22147;52.388;13.390;2023-08-31T11:30:36;100149.44;;;14.26;100.00
36092;BME280;22147;52.388;13.390;2023-08-31T11:33:08;100145.97;;;14.33;100.00
36092;BME280;22147;52.388;13.390;2023-08-31T11:35:43;100142.91;;;14.38;100.00
36092;BME280;22147;52.388;13.390;2023-08-31T11:38:13;100142.31;;;14.29;100.00
36092;BME280;22147;52.388;13.390;2023-08-31T11:40:43;100148.28;;;14.46;100.00
36092;BME280;22147;52.388;13.390;2023-08-31T11:43:15;100140.66;;;14.63;100.00
36092;BME280;22147;52.388;13.390;2023-08-31T11:45:45;100137.88;;;14.86;100.00
36092;BME280;22147;52.388;13.390;2023-08-31T11:48:17;100140.88;;;15.20;100.00
36092;BME280;22147;52.388;13.390;2023-08-31T11:50:48;100140.66;;;15.32;100.00
36092;BME280;22147;52.388;13.390;2023-08-31T11:53:20;100143.31;;;15.48;100.00
36092;BME280;22147;52.388;13.390;2023-08-31T11:55:51;100148.94;;;15.48;100.00
36092;BME280;22147;52.388;13.390;2023-08-31T11:58:26;100147.00;;;15.79;100.00
36092;BME280;22147;52.388;13.390;2023-08-31T12:00:58;100152.00;;;16.19;100.00
36092;BME280;22147;52.388;13.390;2023-08-31T12:03:43;100138.00;;;16.53;100.00
36092;BME280;22147;52.388;13.390;2023-08-31T12:06:19;100144.22;;;16.73;97.14
36092;BME280;22147;52.388;13.390;2023-08-31T12:08:49;100135.06;;;16.80;97.00
36092;BME280;22147;52.388;13.390;2023-08-31T12:11:20;100129.25;;;16.96;96.74
36092;BME280;22147;52.388;13.390;2023-08-31T12:13:50;100130.63;;;17.16;100.00
36092;BME280;22147;52.388;13.390;2023-08-31T12:16:20;100137.81;;;17.14;90.53
36092;BME280;22147;52.388;13.390;2023-08-31T12:18:50;100141.31;;;17.00;90.59
36092;BME280;22147;52.388;13.390;2023-08-31T12:21:21;100143.44;;;16.76;88.25
36092;BME280;22147;52.388;13.390;2023-08-31T12:23:51;100141.00;;;16.37;89.90
36092;BME280;22147;52.388;13.390;2023-08-31T12:26:21;100146.34;;;16.16;90.38
36092;BME280;22147;52.388;13.390;2023-08-31T12:28:51;100145.22;;;15.94;96.45
36092;BME280;22147;52.388;13.390;2023-08-31T12:31:23;100155.97;;;15.88;100.00
36092;BME280;22147;52.388;13.390;2023-08-31T12:33:53;100155.03;;;15.80;100.00
36092;BME280;22147;52.388;13.390;2023-08-31T12:36:23;100158.53;;;15.74;97.70
36092;BME280;22147;52.388;13.390;2023-08-31T12:38:53;100170.53;;;15.74;91.04
36092;BME280;22147;52.388;13.390;2023-08-31T12:41:23;100168.75;;;15.62;95.85
36092;BME280;22147;52.388;13.390;2023-08-31T12:43:53;100170.50;;;15.47;92.80
36092;BME280;22147;52.388;13.390;2023-08-31T12:46:24;100185.06;;;15.34;94.63
36092;BME280;22147;52.388;13.390;2023-08-31T12:48:55;100191.59;;;15.18;96.91
36092;BME280;22147;52.388;13.390;2023-08-31T12:51:25;100199.34;;;15.05;95.63
36092;BME280;22147;52.388;13.390;2023-08-31T12:53:57;100201.25;;;15.01;97.91
36092;BME280;22147;52.388;13.390;2023-08-31T12:56:28;100202.94;;;15.06;98.49
36092;BME280;22147;52.388;13.390;2023-08-31T12:58:57;100202.00;;;14.98;100.00
36092;BME280;22147;52.388;13.390;2023-08-31T13:01:27;100193.03;;;14.89;100.00
36092;BME280;22147;52.388;13.390;2023-08-31T13:03:57;100201.34;;;14.85;100.00
36092;BME280;22147;52.388;13.390;2023-08-31T13:06:27;100190.19;;;15.09;100.00